createdAt,value
2022-12-12T00:00:41.111Z,0.69
2022-12-12T00:03:07.808Z,0.90
2022-12-12T00:05:35.064Z,0.52
2022-12-12T00:08:01.829Z,0.62
2022-12-12T00:10:28.502Z,0.72
2022-12-12T00:12:55.326Z,0.70
2022-12-12T00:15:21.990Z,0.50
2022-12-12T00:17:48.604Z,0.64
2022-12-12T00:20:15.298Z,0.40
2022-12-12T00:22:41.935Z,0.37
2022-12-12T00:25:08.894Z,0.36
2022-12-12T00:27:35.546Z,0.29
2022-12-12T00:30:02.325Z,0.55
2022-12-12T00:32:29.019Z,0.49
2022-12-12T00:37:28.042Z,0.78
2022-12-12T00:42:30.374Z,0.69
2022-12-12T00:44:57.051Z,0.64
2022-12-12T00:47:23.677Z,0.53
2022-12-12T00:49:50.334Z,0.48
2022-12-12T00:52:16.970Z,0.53
2022-12-12T00:54:43.611Z,0.51
2022-12-12T00:57:10.210Z,0.50
2022-12-12T00:59:36.837Z,0.55
2022-12-12T01:02:04.145Z,0.56
2022-12-12T01:04:30.835Z,0.64
2022-12-12T01:06:57.385Z,0.51
2022-12-12T01:09:23.959Z,0.25
2022-12-12T01:11:50.536Z,0.20
2022-12-12T01:14:17.294Z,0.47
2022-12-12T01:16:43.940Z,0.43
2022-12-12T01:19:10.572Z,0.51
2022-12-12T01:21:37.214Z,0.40
2022-12-12T01:24:04.119Z,0.33
2022-12-12T01:26:30.774Z,0.39
2022-12-12T01:28:57.392Z,0.55
2022-12-12T01:31:24.286Z,0.37
2022-12-12T01:33:51.201Z,0.21
2022-12-12T01:36:21.453Z,0.24
2022-12-12T01:38:50.344Z,0.28
2022-12-12T01:41:17.667Z,0.39
2022-12-12T01:43:44.371Z,0.17
2022-12-12T01:46:33.604Z,0.20
2022-12-12T01:49:06.293Z,0.24
2022-12-12T01:51:34.119Z,0.13
2022-12-12T01:56:44.309Z,0.28
2022-12-12T01:59:14.110Z,0.58
2022-12-12T02:01:41.221Z,0.36
2022-12-12T02:04:09.184Z,0.28
2022-12-12T02:06:36.186Z,0.03
2022-12-12T02:09:08.087Z,-0.14
2022-12-12T02:11:37.994Z,-0.16
2022-12-12T02:16:55.763Z,0.12
2022-12-12T02:20:13.119Z,0.07
2022-12-12T02:23:09.010Z,0.46
2022-12-12T02:25:59.948Z,0.12
2022-12-12T02:31:37.172Z,0.22
2022-12-12T02:34:32.768Z,0.10
2022-12-12T02:37:15.119Z,0.22
2022-12-12T02:40:15.077Z,-0.05
2022-12-12T02:42:53.693Z,-0.08
2022-12-12T02:45:31.668Z,-0.11
2022-12-12T02:48:04.064Z,-0.26
2022-12-12T02:50:32.212Z,-0.53
2022-12-12T02:53:00.539Z,-0.51
2022-12-12T02:55:27.176Z,-0.42
2022-12-12T02:57:55.558Z,-0.46
2022-12-12T03:00:22.254Z,-0.43
2022-12-12T03:02:48.771Z,-0.27
2022-12-12T03:05:39.906Z,-0.66
2022-12-12T03:08:41.576Z,-0.80
2022-12-12T03:11:14.730Z,-0.61
2022-12-12T03:16:43.299Z,-0.68
2022-12-12T03:19:30.868Z,-0.50
2022-12-12T03:22:15.047Z,-0.70
2022-12-12T03:28:03.825Z,-0.80
2022-12-12T03:30:35.550Z,-0.67
2022-12-12T03:33:28.079Z,-0.46
2022-12-12T03:36:07.605Z,-0.59
2022-12-12T03:38:43.534Z,-0.60
2022-12-12T03:41:19.187Z,-0.59
2022-12-12T03:44:10.249Z,-0.30
2022-12-12T03:46:54.518Z,-0.34
2022-12-12T03:49:28.377Z,-0.65
2022-12-12T03:52:05.332Z,-0.39
2022-12-12T03:54:47.457Z,-0.35
2022-12-12T03:57:20.928Z,-0.40
2022-12-12T03:59:54.839Z,-0.35
2022-12-12T04:02:31.727Z,-0.36
2022-12-12T04:05:05.498Z,-0.54
2022-12-12T04:07:43.656Z,-0.41
2022-12-12T04:10:29.848Z,-0.41
2022-12-12T04:13:21.417Z,-0.38
2022-12-12T04:16:04.121Z,-0.47
2022-12-12T04:18:37.047Z,-0.38
2022-12-12T04:21:54.323Z,-0.21
2022-12-12T04:24:35.747Z,-0.24
2022-12-12T04:27:07.429Z,-0.32
2022-12-12T04:29:53.301Z,-0.31
2022-12-12T04:32:38.009Z,-0.40
2022-12-12T04:35:14.445Z,-0.39
2022-12-12T04:37:48.894Z,-0.50
2022-12-12T04:40:26.033Z,-0.28
2022-12-12T04:46:03.111Z,-0.32
2022-12-12T04:51:23.556Z,-0.39
2022-12-12T04:53:59.465Z,-0.49
2022-12-12T04:56:29.859Z,-0.59
2022-12-12T04:58:58.450Z,-0.51
2022-12-12T05:01:55.594Z,-0.71
2022-12-12T05:04:37.240Z,-0.51
2022-12-12T05:07:16.905Z,-0.29
2022-12-12T05:09:44.224Z,-0.30
2022-12-12T05:12:11.013Z,-0.28
2022-12-12T05:14:37.626Z,-0.45
2022-12-12T05:19:47.017Z,-0.37
2022-12-12T05:22:13.657Z,-0.35
2022-12-12T05:24:40.401Z,-0.40
2022-12-12T05:27:07.168Z,-0.49
2022-12-12T05:29:33.873Z,-0.58
2022-12-12T05:32:00.592Z,-0.50
2022-12-12T05:34:27.242Z,-0.44
2022-12-12T05:36:54.017Z,-0.47
2022-12-12T05:39:20.725Z,-0.48
2022-12-12T05:41:47.525Z,-0.51
2022-12-12T05:44:14.361Z,-0.65
2022-12-12T05:46:40.995Z,-0.62
2022-12-12T05:49:07.779Z,-0.62
2022-12-12T05:51:34.507Z,-0.54
2022-12-12T05:54:01.407Z,-0.62
2022-12-12T05:56:28.051Z,-0.53
2022-12-12T05:58:54.731Z,-0.49
2022-12-12T06:01:21.525Z,-0.57
2022-12-12T06:03:48.301Z,-0.50
2022-12-12T06:06:15.064Z,-0.52
2022-12-12T06:08:41.872Z,-0.46
2022-12-12T06:11:08.825Z,-0.55
2022-12-12T06:13:36.772Z,-0.52
2022-12-12T06:16:12.909Z,-0.55
2022-12-12T06:18:39.700Z,-0.33
2022-12-12T06:21:09.911Z,-0.55
2022-12-12T06:23:38.122Z,-0.29
2022-12-12T06:26:06.161Z,-0.36
2022-12-12T06:33:44.144Z,-0.44
2022-12-12T06:36:19.295Z,-0.56
2022-12-12T06:38:46.044Z,-0.48
2022-12-12T06:41:14.562Z,-0.31
2022-12-12T06:43:42.077Z,-0.27
2022-12-12T06:46:14.297Z,-0.50
2022-12-12T06:51:16.565Z,-0.28
2022-12-12T06:53:43.628Z,-0.28
2022-12-12T06:56:22.603Z,-0.34
2022-12-12T06:58:49.519Z,-0.35
2022-12-12T07:01:19.614Z,-0.56
2022-12-12T07:03:47.055Z,-0.59
2022-12-12T07:06:14.017Z,-0.42
2022-12-12T07:08:40.829Z,-0.57
2022-12-12T07:11:11.271Z,-0.43
2022-12-12T07:13:38.247Z,-0.55
2022-12-12T07:16:05.990Z,-0.53
2022-12-12T07:18:32.747Z,-0.56
2022-12-12T07:20:59.635Z,-0.58
2022-12-12T07:23:26.257Z,-0.56
2022-12-12T07:25:52.949Z,-0.49
2022-12-12T07:28:19.690Z,-0.59
2022-12-12T07:30:47.699Z,-0.69
2022-12-12T07:33:16.864Z,-0.55
2022-12-12T07:38:27.422Z,-0.65
2022-12-12T07:40:54.536Z,-0.67
2022-12-12T07:43:26.410Z,-0.55
2022-12-12T07:45:53.521Z,-0.52
2022-12-12T07:48:20.211Z,-0.72
2022-12-12T07:53:24.606Z,-0.76
2022-12-12T07:55:51.292Z,-0.68
2022-12-12T07:58:17.960Z,-0.63
2022-12-12T08:00:44.774Z,-0.78
2022-12-12T08:03:11.495Z,-0.70
2022-12-12T08:05:42.021Z,-0.67
2022-12-12T08:08:09.185Z,-0.72
2022-12-12T08:10:39.389Z,-0.69
2022-12-12T08:13:06.832Z,-0.60
2022-12-12T08:15:34.071Z,-0.60
2022-12-12T08:18:00.738Z,-0.62
2022-12-12T08:20:27.455Z,-0.90
2022-12-12T08:22:54.170Z,-0.78
2022-12-12T08:25:20.805Z,-0.71
2022-12-12T08:27:47.418Z,-0.61
2022-12-12T08:30:14.262Z,-0.54
2022-12-12T08:32:41.066Z,-0.63
2022-12-12T08:37:41.420Z,-0.63
2022-12-12T08:40:09.004Z,-0.57
2022-12-12T08:42:35.694Z,-0.67
2022-12-12T08:45:02.315Z,-0.63
2022-12-12T08:47:29.702Z,-0.51
2022-12-12T08:49:56.397Z,-0.50
2022-12-12T08:52:23.185Z,-0.47
2022-12-12T08:54:50.250Z,-0.59
2022-12-12T08:57:18.427Z,-0.72
2022-12-12T08:59:46.920Z,-0.58
2022-12-12T09:02:13.718Z,-0.61
2022-12-12T09:07:17.849Z,-0.56
2022-12-12T09:09:44.555Z,-0.57
2022-12-12T09:12:11.283Z,-0.45
2022-12-12T09:14:38.207Z,-0.54
2022-12-12T09:17:04.919Z,-0.55
2022-12-12T09:19:31.667Z,-0.45
2022-12-12T09:21:58.382Z,-0.47
2022-12-12T09:24:25.656Z,-0.33
2022-12-12T09:26:52.343Z,-0.39
2022-12-12T09:29:19.088Z,-0.27
2022-12-12T09:31:46.011Z,-0.25
2022-12-12T09:34:12.822Z,-0.32
2022-12-12T09:36:39.813Z,-0.29
2022-12-12T09:39:06.583Z,-0.26
2022-12-12T09:41:33.301Z,-0.19
2022-12-12T09:44:08.199Z,-0.17
2022-12-12T09:46:45.798Z,-0.18
2022-12-12T09:49:16.590Z,-0.20
2022-12-12T09:51:47.392Z,-0.11
2022-12-12T09:54:17.612Z,-0.06
2022-12-12T09:56:58.116Z,0.10
2022-12-12T09:59:46.485Z,-0.02
2022-12-12T10:05:35.408Z,-0.28
2022-12-12T10:08:36.851Z,-0.11
2022-12-12T10:11:31.196Z,-0.03
2022-12-12T10:14:00.465Z,0.00
2022-12-12T10:16:31.557Z,0.07
2022-12-12T10:19:08.965Z,0.19
2022-12-12T10:21:41.071Z,0.18
2022-12-12T10:24:16.101Z,0.34
2022-12-12T10:26:43.268Z,0.28
2022-12-12T10:29:18.270Z,0.23
2022-12-12T10:31:54.333Z,0.30
2022-12-12T10:34:51.911Z,0.37
2022-12-12T10:40:36.147Z,0.29
2022-12-12T10:43:15.642Z,0.33
2022-12-12T10:48:51.580Z,0.23
2022-12-12T10:51:21.263Z,0.22
2022-12-12T10:53:47.998Z,0.13
2022-12-12T10:56:26.843Z,0.21
2022-12-12T10:59:01.733Z,0.10
2022-12-12T11:02:07.875Z,0.01
2022-12-12T11:07:00.564Z,0.26
2022-12-12T11:09:28.825Z,0.29
2022-12-12T11:11:58.323Z,0.29
2022-12-12T11:14:34.125Z,0.28
2022-12-12T11:19:39.478Z,0.34
2022-12-12T11:22:06.401Z,0.48
2022-12-12T11:24:34.968Z,0.53
2022-12-12T11:27:04.481Z,0.57
2022-12-12T11:29:36.598Z,0.52
2022-12-12T11:32:04.010Z,0.51
2022-12-12T11:34:34.118Z,0.54
2022-12-12T11:37:01.093Z,0.40
2022-12-12T11:39:42.803Z,0.41
2022-12-12T11:42:23.671Z,0.44
2022-12-12T11:44:58.979Z,0.47
2022-12-12T11:47:41.086Z,0.37
2022-12-12T11:50:19.614Z,0.46
2022-12-12T11:52:47.505Z,0.47
2022-12-12T11:55:17.457Z,0.59
2022-12-12T11:58:03.581Z,0.57
2022-12-12T12:00:45.535Z,0.57
2022-12-12T12:03:41.308Z,0.65
2022-12-12T12:06:32.305Z,0.79
2022-12-12T12:12:15.721Z,0.70
2022-12-12T12:14:55.933Z,0.61
2022-12-12T12:17:42.248Z,0.72
2022-12-12T12:20:34.519Z,0.70
2022-12-12T12:23:19.478Z,0.76
2022-12-12T12:26:20.670Z,0.75
2022-12-12T12:29:08.961Z,0.81
2022-12-12T12:31:35.599Z,0.83
2022-12-12T12:34:10.145Z,0.81
2022-12-12T12:36:45.819Z,0.87
2022-12-12T12:39:30.837Z,0.81
2022-12-12T12:42:15.801Z,0.85
2022-12-12T12:45:03.034Z,0.92
2022-12-12T12:47:57.813Z,0.88
2022-12-12T12:51:12.314Z,0.78
2022-12-12T12:53:49.531Z,0.78
2022-12-12T12:59:10.170Z,0.98
2022-12-12T13:01:44.998Z,0.93
2022-12-12T13:04:11.624Z,1.07
2022-12-12T13:06:56.763Z,1.11
2022-12-12T13:09:38.450Z,1.12
2022-12-12T13:12:16.159Z,1.06
2022-12-12T13:14:57.891Z,1.09
2022-12-12T13:17:37.242Z,1.09
2022-12-12T13:20:04.215Z,1.10
2022-12-12T13:22:43.482Z,1.13
2022-12-12T13:25:19.426Z,1.09
2022-12-12T13:27:52.617Z,1.16
2022-12-12T13:30:38.159Z,1.19
2022-12-12T13:33:38.621Z,1.22
2022-12-12T13:36:31.700Z,1.29
2022-12-12T13:39:00.805Z,1.20
2022-12-12T13:41:27.657Z,1.18
2022-12-12T13:43:59.489Z,1.22
2022-12-12T13:46:28.915Z,1.31
2022-12-12T13:49:22.613Z,1.21
2022-12-12T13:51:49.354Z,1.37
2022-12-12T13:54:19.114Z,1.35
2022-12-12T13:56:57.916Z,1.36
2022-12-12T13:59:27.629Z,1.29
2022-12-12T14:01:59.502Z,1.39
2022-12-12T14:04:35.509Z,1.35
2022-12-12T14:07:02.108Z,1.46
2022-12-12T14:09:47.705Z,1.37
2022-12-12T14:12:32.193Z,1.30
2022-12-12T14:15:07.201Z,1.26
2022-12-12T14:20:21.293Z,1.36
2022-12-12T14:22:47.870Z,1.37
2022-12-12T14:25:14.453Z,1.44
2022-12-12T14:27:50.078Z,1.31
2022-12-12T14:30:22.774Z,1.44
2022-12-12T14:33:03.851Z,1.31
2022-12-12T14:35:47.658Z,1.26
2022-12-12T14:38:29.306Z,1.20
2022-12-12T14:41:03.898Z,1.28
2022-12-12T14:43:36.061Z,1.22
2022-12-12T14:46:05.301Z,1.15
2022-12-12T14:48:33.441Z,1.12
2022-12-12T14:51:03.620Z,1.07
2022-12-12T14:53:39.231Z,1.31
2022-12-12T14:56:11.200Z,1.28
2022-12-12T14:58:41.712Z,1.26
2022-12-12T15:01:09.019Z,1.21
2022-12-12T15:03:39.527Z,1.29
2022-12-12T15:06:35.028Z,1.21
2022-12-12T15:09:31.979Z,1.58
2022-12-12T15:12:10.740Z,1.26
2022-12-12T15:14:39.425Z,1.24
2022-12-12T15:17:16.140Z,1.22
2022-12-12T15:19:50.387Z,1.16
2022-12-12T15:22:35.013Z,1.09
2022-12-12T15:25:15.965Z,1.19
2022-12-12T15:27:52.197Z,1.08
2022-12-12T15:30:31.066Z,1.05
2022-12-12T15:32:59.700Z,1.23
2022-12-12T15:35:27.644Z,1.15
2022-12-12T15:38:01.234Z,1.12
2022-12-12T15:40:34.956Z,1.10
2022-12-12T15:43:05.400Z,0.88
2022-12-12T15:45:37.856Z,0.93
2022-12-12T15:48:06.901Z,0.79
2022-12-12T15:50:42.685Z,0.99
2022-12-12T15:53:32.715Z,0.82
2022-12-12T15:56:02.016Z,0.75
2022-12-12T15:58:41.469Z,0.73
2022-12-12T16:01:21.400Z,0.71
2022-12-12T16:03:57.539Z,0.61
2022-12-12T16:06:27.127Z,0.44
2022-12-12T16:11:46.015Z,0.50
2022-12-12T16:14:40.580Z,0.46
2022-12-12T16:17:10.876Z,0.47
2022-12-12T16:20:06.581Z,0.52
2022-12-12T16:22:42.777Z,0.62
2022-12-12T16:25:27.747Z,0.52
2022-12-12T16:28:12.606Z,0.28
2022-12-12T16:30:42.333Z,0.36
2022-12-12T16:33:30.079Z,0.29
2022-12-12T16:35:59.248Z,0.32
2022-12-12T16:38:26.041Z,0.40
2022-12-12T16:40:55.709Z,0.28
2022-12-12T16:43:24.175Z,0.29
2022-12-12T16:45:53.224Z,0.33
2022-12-12T16:48:25.053Z,0.21
2022-12-12T16:50:56.694Z,0.26
2022-12-12T16:53:23.436Z,0.42
2022-12-12T16:55:52.168Z,0.33
2022-12-12T16:58:21.404Z,0.22
2022-12-12T17:00:49.237Z,0.37
2022-12-12T17:03:17.258Z,0.27
2022-12-12T17:05:45.970Z,0.23
2022-12-12T17:08:15.384Z,0.19
2022-12-12T17:10:42.646Z,0.30
2022-12-12T17:13:16.137Z,0.24
2022-12-12T17:15:42.844Z,0.37
2022-12-12T17:18:09.475Z,0.12
2022-12-12T17:20:38.220Z,0.05
2022-12-12T17:25:50.720Z,0.18
2022-12-12T17:28:19.901Z,0.07
2022-12-12T17:30:50.338Z,-0.19
2022-12-12T17:33:18.301Z,-0.16
2022-12-12T17:35:45.461Z,-0.06
2022-12-12T17:38:16.176Z,-0.18
2022-12-12T17:40:44.198Z,-0.05
2022-12-12T17:43:10.788Z,0.04
2022-12-12T17:45:37.417Z,-0.10
2022-12-12T17:48:05.238Z,-0.02
2022-12-12T17:50:34.918Z,-0.08
2022-12-12T17:53:03.828Z,0.03
2022-12-12T17:55:54.330Z,0.05
2022-12-12T17:58:17.349Z,0.08
2022-12-12T18:00:44.043Z,0.18
2022-12-12T18:03:10.728Z,-0.12
2022-12-12T18:05:37.409Z,-0.19
2022-12-12T18:08:04.240Z,-0.30
2022-12-12T18:10:30.943Z,-0.15
2022-12-12T18:12:58.566Z,-0.07
2022-12-12T18:15:25.691Z,0.03
2022-12-12T18:17:52.324Z,-0.19
2022-12-12T18:20:20.150Z,-0.38
2022-12-12T18:22:46.734Z,-0.49
2022-12-12T18:25:13.417Z,-0.50
2022-12-12T18:27:40.563Z,-0.55
2022-12-12T18:30:07.699Z,-0.49
2022-12-12T18:32:34.354Z,-0.56
2022-12-12T18:35:00.985Z,-0.58
2022-12-12T18:37:27.651Z,-0.66
2022-12-12T18:39:54.310Z,-0.72
2022-12-12T18:42:21.838Z,-0.76
2022-12-12T18:44:48.439Z,-0.64
2022-12-12T18:47:15.071Z,-0.76
2022-12-12T18:49:41.708Z,-0.54
2022-12-12T18:52:08.420Z,-0.59
2022-12-12T18:54:35.184Z,-0.56
2022-12-12T18:57:01.984Z,-0.82
2022-12-12T18:59:28.595Z,-0.61
2022-12-12T19:01:55.434Z,-0.51
2022-12-12T19:04:23.643Z,-0.60
2022-12-12T19:06:51.048Z,-0.66
2022-12-12T19:09:19.802Z,-0.68
2022-12-12T19:11:47.578Z,-0.88
2022-12-12T19:16:48.758Z,-0.79
2022-12-12T19:19:15.622Z,-0.82
2022-12-12T19:21:42.846Z,-0.83
2022-12-12T19:24:12.663Z,-1.14
2022-12-12T19:26:41.802Z,-0.95
2022-12-12T19:29:13.052Z,-0.81
2022-12-12T19:31:40.395Z,-0.74
2022-12-12T19:34:08.903Z,-0.72
2022-12-12T19:36:36.044Z,-0.99
2022-12-12T19:39:05.288Z,-0.98
2022-12-12T19:41:32.543Z,-0.93
2022-12-12T19:44:01.829Z,-1.02
2022-12-12T19:46:31.145Z,-1.14
2022-12-12T19:49:00.279Z,-1.08
2022-12-12T19:51:28.782Z,-1.09
2022-12-12T19:53:57.576Z,-1.32
2022-12-12T19:56:32.996Z,-1.05
2022-12-12T19:59:01.083Z,-1.13
2022-12-12T20:01:30.772Z,-1.09
2022-12-12T20:04:01.867Z,-1.06
2022-12-12T20:06:29.068Z,-1.24
2022-12-12T20:08:59.187Z,-1.23
2022-12-12T20:11:26.902Z,-1.24
2022-12-12T20:13:56.093Z,-1.45
2022-12-12T20:16:25.989Z,-1.21
2022-12-12T20:18:53.170Z,-1.41
2022-12-12T20:21:51.657Z,-1.36
2022-12-12T20:24:10.072Z,-1.51
2022-12-12T20:26:37.712Z,-1.67
2022-12-12T20:29:04.449Z,-1.49
2022-12-12T20:31:33.528Z,-1.66
2022-12-12T20:34:01.499Z,-1.58
2022-12-12T20:36:31.329Z,-1.72
2022-12-12T20:39:00.950Z,-1.61
2022-12-12T20:41:30.340Z,-1.44
2022-12-12T20:43:58.510Z,-1.52
2022-12-12T20:46:29.854Z,-1.59
2022-12-12T20:48:58.363Z,-1.72
2022-12-12T20:51:54.734Z,-1.85
2022-12-12T20:54:20.039Z,-1.62
2022-12-12T20:59:19.829Z,-1.42
2022-12-12T21:01:47.583Z,-1.37
2022-12-12T21:04:14.689Z,-1.73
2022-12-12T21:06:51.248Z,-1.61
2022-12-12T21:09:24.440Z,-1.78
2022-12-12T21:11:54.102Z,-1.88
2022-12-12T21:14:20.805Z,-1.82
2022-12-12T21:16:47.686Z,-1.73
2022-12-12T21:19:15.681Z,-1.85
2022-12-12T21:24:16.980Z,-1.68
2022-12-12T21:26:45.031Z,-1.87
2022-12-12T21:29:11.755Z,-1.80
2022-12-12T21:31:48.234Z,-1.94
2022-12-12T21:34:16.953Z,-1.78
2022-12-12T21:36:44.625Z,-1.78
2022-12-12T21:39:12.234Z,-2.01
2022-12-12T21:41:41.623Z,-2.07
2022-12-12T21:44:08.395Z,-1.92
2022-12-12T21:46:35.298Z,-1.93
2022-12-12T21:49:20.022Z,-1.99
2022-12-12T21:51:46.924Z,-2.20
2022-12-12T21:54:15.596Z,-2.15
2022-12-12T21:56:42.795Z,-2.13
2022-12-12T21:59:11.249Z,-2.26
2022-12-12T22:01:38.114Z,-1.99
2022-12-12T22:04:04.878Z,-1.79
2022-12-12T22:06:34.215Z,-2.01
2022-12-12T22:09:04.175Z,-2.05
2022-12-12T22:11:41.407Z,-1.84
2022-12-12T22:14:16.883Z,-2.12
2022-12-12T22:16:43.568Z,-2.22
2022-12-12T22:19:12.618Z,-2.11
2022-12-12T22:21:39.617Z,-2.04
2022-12-12T22:24:06.810Z,-2.30
2022-12-12T22:26:36.188Z,-2.32
2022-12-12T22:29:07.045Z,-2.10
2022-12-12T22:31:35.844Z,-2.13
2022-12-12T22:34:06.423Z,-2.24
2022-12-12T22:36:35.663Z,-2.36
2022-12-12T22:39:04.214Z,-2.45
2022-12-12T22:41:30.866Z,-2.43
2022-12-12T22:44:00.202Z,-2.41
2022-12-12T22:46:27.756Z,-2.70
2022-12-12T22:48:56.761Z,-2.90
2022-12-12T22:51:32.745Z,-2.90
2022-12-12T22:54:02.513Z,-2.80
2022-12-12T22:56:33.764Z,-2.81
2022-12-12T22:59:00.572Z,-2.83
2022-12-12T23:01:28.346Z,-2.84
2022-12-12T23:03:55.081Z,-2.89
2022-12-12T23:06:23.168Z,-2.81
2022-12-12T23:08:52.371Z,-2.68
2022-12-12T23:11:20.795Z,-2.63
2022-12-12T23:13:47.577Z,-2.64
2022-12-12T23:16:19.998Z,-2.65
2022-12-12T23:18:48.413Z,-2.81
2022-12-12T23:21:17.749Z,-3.05
2022-12-12T23:23:45.473Z,-3.15
2022-12-12T23:26:21.622Z,-3.06
2022-12-12T23:28:49.180Z,-2.94
2022-12-12T23:33:57.283Z,-2.81
2022-12-12T23:36:24.873Z,-2.94
2022-12-12T23:38:56.295Z,-3.02
2022-12-12T23:41:23.035Z,-2.80
2022-12-12T23:43:50.640Z,-2.92
2022-12-12T23:46:31.217Z,-2.96
2022-12-12T23:49:12.727Z,-3.20
2022-12-12T23:51:45.291Z,-3.20
2022-12-12T23:54:14.516Z,-3.12
2022-12-12T23:56:41.894Z,-3.11
2022-12-12T23:59:10.678Z,-3.09
